sensor_id;sensor_type;location;lat;lon;timestamp;pressure;altitude;pressure_sealevel;temperature;humidity
56681;BME280;42558;52.388;13.390;2023-04-26T00:00:14;100932.54;;;3.18;85.54
56681;BME280;42558;52.388;13.390;2023-04-26T00:02:44;100936.64;;;3.17;85.71
56681;BME280;42558;52.388;13.390;2023-04-26T00:05:14;100932.91;;;3.15;85.71
56681;BME280;42558;52.388;13.390;2023-04-26T00:07:45;100931.42;;;3.14;85.70
56681;BME280;42558;52.388;13.390;2023-04-26T00:10:15;100931.61;;;3.14;85.49
56681;BME280;42558;52.388;13.390;2023-04-26T00:12:45;100933.80;;;3.12;85.60
56681;BME280;42558;52.388;13.390;2023-04-26T00:15:15;100936.40;;;3.08;85.95
56681;BME280;42558;52.388;13.390;2023-04-26T00:17:44;100936.42;;;3.09;86.05
56681;BME280;42558;52.388;13.390;2023-04-26T00:20:15;100934.48;;;3.08;86.03
56681;BME280;42558;52.388;13.390;2023-04-26T00:22:45;100936.60;;;3.01;86.22
56681;BME280;42558;52.388;13.390;2023-04-26T00:25:14;100933.34;;;3.02;86.26
56681;BME280;42558;52.388;13.390;2023-04-26T00:27:44;100934.91;;;2.98;86.58
56681;BME280;42558;52.388;13.390;2023-04-26T00:30:14;100934.39;;;2.94;87.04
56681;BME280;42558;52.388;13.390;2023-04-26T00:32:44;100938.77;;;2.95;86.85
56681;BME280;42558;52.388;13.390;2023-04-26T00:35:15;100944.16;;;2.88;87.21
56681;BME280;42558;52.388;13.390;2023-04-26T00:37:45;100938.61;;;2.85;87.80
56681;BME280;42558;52.388;13.390;2023-04-26T00:40:15;100940.55;;;2.78;88.00
56681;BME280;42558;52.388;13.390;2023-04-26T00:42:45;100938.07;;;2.77;88.63
56681;BME280;42558;52.388;13.390;2023-04-26T00:45:14;100937.94;;;2.78;88.27
56681;BME280;42558;52.388;13.390;2023-04-26T00:47:42;100938.69;;;2.72;88.60
56681;BME280;42558;52.388;13.390;2023-04-26T00:50:10;100937.41;;;2.67;88.99
56681;BME280;42558;52.388;13.390;2023-04-26T00:52:39;100937.08;;;2.64;89.40
56681;BME280;42558;52.388;13.390;2023-04-26T00:55:08;100942.97;;;2.60;89.59
56681;BME280;42558;52.388;13.390;2023-04-26T00:57:36;100944.64;;;2.59;89.72
56681;BME280;42558;52.388;13.390;2023-04-26T01:00:05;100946.70;;;2.58;89.70
56681;BME280;42558;52.388;13.390;2023-04-26T01:02:32;100949.03;;;2.56;90.25
56681;BME280;42558;52.388;13.390;2023-04-26T01:05:03;100944.05;;;2.57;90.24
56681;BME280;42558;52.388;13.390;2023-04-26T01:07:35;100946.86;;;2.58;90.24
56681;BME280;42558;52.388;13.390;2023-04-26T01:10:05;100950.13;;;2.61;90.27
56681;BME280;42558;52.388;13.390;2023-04-26T01:12:38;100948.73;;;2.61;90.30
56681;BME280;42558;52.388;13.390;2023-04-26T01:15:09;100948.63;;;2.59;90.17
56681;BME280;42558;52.388;13.390;2023-04-26T01:17:37;100949.68;;;2.55;90.67
56681;BME280;42558;52.388;13.390;2023-04-26T01:20:07;100950.85;;;2.51;91.15
56681;BME280;42558;52.388;13.390;2023-04-26T01:22:38;100953.11;;;2.47;91.13
56681;BME280;42558;52.388;13.390;2023-04-26T01:25:10;100954.76;;;2.42;91.33
56681;BME280;42558;52.388;13.390;2023-04-26T01:27:40;100958.18;;;2.34;92.12
56681;BME280;42558;52.388;13.390;2023-04-26T01:30:10;100961.95;;;2.26;92.48
56681;BME280;42558;52.388;13.390;2023-04-26T01:32:40;100960.39;;;2.23;93.04
56681;BME280;42558;52.388;13.390;2023-04-26T01:35:10;100963.95;;;2.25;93.08
56681;BME280;42558;52.388;13.390;2023-04-26T01:37:40;100966.37;;;2.21;93.58
56681;BME280;42558;52.388;13.390;2023-04-26T01:40:11;100972.10;;;2.24;93.86
56681;BME280;42558;52.388;13.390;2023-04-26T01:42:40;100973.14;;;2.28;93.50
56681;BME280;42558;52.388;13.390;2023-04-26T01:45:10;100970.75;;;2.25;93.59
56681;BME280;42558;52.388;13.390;2023-04-26T01:47:41;100972.24;;;2.24;93.75
56681;BME280;42558;52.388;13.390;2023-04-26T01:50:11;100974.02;;;2.25;93.57
56681;BME280;42558;52.388;13.390;2023-04-26T01:52:41;100970.61;;;2.19;93.88
56681;BME280;42558;52.388;13.390;2023-04-26T01:55:11;100977.75;;;2.13;94.43
56681;BME280;42558;52.388;13.390;2023-04-26T01:57:40;100973.46;;;2.10;95.01
56681;BME280;42558;52.388;13.390;2023-04-26T02:00:11;100974.16;;;2.10;94.68
56681;BME280;42558;52.388;13.390;2023-04-26T02:02:41;100975.44;;;2.08;95.01
56681;BME280;42558;52.388;13.390;2023-04-26T02:05:11;100973.21;;;2.08;95.28
56681;BME280;42558;52.388;13.390;2023-04-26T02:07:41;100974.50;;;2.10;95.15
56681;BME280;42558;52.388;13.390;2023-04-26T02:10:11;100975.16;;;2.10;95.10
56681;BME280;42558;52.388;13.390;2023-04-26T02:12:41;100974.30;;;2.06;95.40
56681;BME280;42558;52.388;13.390;2023-04-26T02:15:10;100971.89;;;2.07;95.43
56681;BME280;42558;52.388;13.390;2023-04-26T02:17:39;100972.16;;;2.05;95.33
56681;BME280;42558;52.388;13.390;2023-04-26T02:20:08;100969.84;;;2.04;95.61
56681;BME280;42558;52.388;13.390;2023-04-26T02:22:39;100972.86;;;1.99;95.90
56681;BME280;42558;52.388;13.390;2023-04-26T02:25:07;100971.84;;;1.93;96.40
56681;BME280;42558;52.388;13.390;2023-04-26T02:27:36;100970.25;;;1.92;96.74
56681;BME280;42558;52.388;13.390;2023-04-26T02:30:05;100971.73;;;1.90;96.67
56681;BME280;42558;52.388;13.390;2023-04-26T02:32:32;100972.21;;;1.86;96.79
56681;BME280;42558;52.388;13.390;2023-04-26T02:35:01;100971.11;;;1.81;97.22
56681;BME280;42558;52.388;13.390;2023-04-26T02:37:29;100968.27;;;1.77;97.35
56681;BME280;42558;52.388;13.390;2023-04-26T02:39:58;100964.95;;;1.76;97.94
56681;BME280;42558;52.388;13.390;2023-04-26T02:42:26;100961.48;;;1.73;97.63
56681;BME280;42558;52.388;13.390;2023-04-26T02:44:55;100962.06;;;1.71;98.24
56681;BME280;42558;52.388;13.390;2023-04-26T02:47:23;100968.13;;;1.68;98.34
56681;BME280;42558;52.388;13.390;2023-04-26T02:49:51;100966.29;;;1.65;98.68
56681;BME280;42558;52.388;13.390;2023-04-26T02:52:20;100967.55;;;1.59;98.92
56681;BME280;42558;52.388;13.390;2023-04-26T02:54:48;100969.89;;;1.58;99.22
56681;BME280;42558;52.388;13.390;2023-04-26T02:57:17;100969.22;;;1.55;99.48
56681;BME280;42558;52.388;13.390;2023-04-26T02:59:45;100968.88;;;1.55;99.56
56681;BME280;42558;52.388;13.390;2023-04-26T03:02:14;100970.77;;;1.55;99.75
56681;BME280;42558;52.388;13.390;2023-04-26T03:04:42;100971.48;;;1.52;99.85
56681;BME280;42558;52.388;13.390;2023-04-26T03:07:10;100971.19;;;1.50;99.84
56681;BME280;42558;52.388;13.390;2023-04-26T03:09:39;100976.21;;;1.50;100.00
56681;BME280;42558;52.388;13.390;2023-04-26T03:12:10;100977.68;;;1.45;100.00
56681;BME280;42558;52.388;13.390;2023-04-26T03:14:42;100977.45;;;1.38;100.00
56681;BME280;42558;52.388;13.390;2023-04-26T03:17:09;100976.25;;;1.38;100.00
56681;BME280;42558;52.388;13.390;2023-04-26T03:19:39;100975.77;;;1.35;100.00
56681;BME280;42558;52.388;13.390;2023-04-26T03:22:09;100975.22;;;1.34;100.00
56681;BME280;42558;52.388;13.390;2023-04-26T03:24:44;100970.27;;;1.33;100.00
56681;BME280;42558;52.388;13.390;2023-04-26T03:27:12;100975.48;;;1.30;100.00
56681;BME280;42558;52.388;13.390;2023-04-26T03:29:42;100980.77;;;1.25;100.00
56681;BME280;42558;52.388;13.390;2023-04-26T03:32:12;100980.54;;;1.21;100.00
56681;BME280;42558;52.388;13.390;2023-04-26T03:34:42;100988.44;;;1.20;100.00
56681;BME280;42558;52.388;13.390;2023-04-26T03:37:12;100984.92;;;1.15;100.00
56681;BME280;42558;52.388;13.390;2023-04-26T03:39:42;100985.89;;;1.14;100.00
56681;BME280;42558;52.388;13.390;2023-04-26T03:42:14;100986.87;;;1.13;100.00
56681;BME280;42558;52.388;13.390;2023-04-26T03:44:45;100986.52;;;1.13;100.00
56681;BME280;42558;52.388;13.390;2023-04-26T03:47:15;100986.77;;;1.18;100.00
56681;BME280;42558;52.388;13.390;2023-04-26T03:49:45;100994.44;;;1.19;100.00
56681;BME280;42558;52.388;13.390;2023-04-26T03:52:13;100988.04;;;1.19;100.00
56681;BME280;42558;52.388;13.390;2023-04-26T03:54:42;100995.85;;;1.19;100.00
56681;BME280;42558;52.388;13.390;2023-04-26T03:57:10;100997.32;;;1.21;100.00
56681;BME280;42558;52.388;13.390;2023-04-26T03:59:39;100997.50;;;1.21;100.00
56681;BME280;42558;52.388;13.390;2023-04-26T04:02:07;100998.46;;;1.22;100.00
56681;BME280;42558;52.388;13.390;2023-04-26T04:04:36;101000.05;;;1.26;100.00
56681;BME280;42558;52.388;13.390;2023-04-26T04:07:04;101002.29;;;1.26;100.00
56681;BME280;42558;52.388;13.390;2023-04-26T04:09:33;101004.69;;;1.26;100.00
56681;BME280;42558;52.388;13.390;2023-04-26T04:12:01;101003.30;;;1.28;100.00
56681;BME280;42558;52.388;13.390;2023-04-26T04:14:29;101002.50;;;1.30;100.00
56681;BME280;42558;52.388;13.390;2023-04-26T04:16:58;101003.52;;;1.29;100.00
56681;BME280;42558;52.388;13.390;2023-04-26T04:19:26;101009.29;;;1.27;100.00
56681;BME280;42558;52.388;13.390;2023-04-26T04:21:55;101011.45;;;1.26;100.00
56681;BME280;42558;52.388;13.390;2023-04-26T04:24:23;101010.08;;;1.32;100.00
56681;BME280;42558;52.388;13.390;2023-04-26T04:26:52;101013.92;;;1.40;100.00
56681;BME280;42558;52.388;13.390;2023-04-26T04:29:20;101015.15;;;1.43;100.00
56681;BME280;42558;52.388;13.390;2023-04-26T04:31:49;101014.61;;;1.49;100.00
56681;BME280;42558;52.388;13.390;2023-04-26T04:34:17;101010.94;;;1.54;100.00
56681;BME280;42558;52.388;13.390;2023-04-26T04:36:45;101011.89;;;1.63;100.00
56681;BME280;42558;52.388;13.390;2023-04-26T04:39:14;101013.88;;;1.68;100.00
56681;BME280;42558;52.388;13.390;2023-04-26T04:41:42;101014.31;;;1.72;100.00
56681;BME280;42558;52.388;13.390;2023-04-26T04:44:14;101017.94;;;1.75;100.00
56681;BME280;42558;52.388;13.390;2023-04-26T04:46:43;101016.28;;;1.80;100.00
56681;BME280;42558;52.388;13.390;2023-04-26T04:49:11;101018.11;;;1.88;100.00
56681;BME280;42558;52.388;13.390;2023-04-26T04:51:39;101022.86;;;1.97;100.00
56681;BME280;42558;52.388;13.390;2023-04-26T04:56:40;101027.82;;;2.08;100.00
56681;BME280;42558;52.388;13.390;2023-04-26T04:59:11;101031.96;;;2.18;100.00
56681;BME280;42558;52.388;13.390;2023-04-26T05:01:41;101034.61;;;2.26;100.00
56681;BME280;42558;52.388;13.390;2023-04-26T05:04:10;101034.05;;;2.35;100.00
56681;BME280;42558;52.388;13.390;2023-04-26T05:06:41;101034.62;;;2.43;99.87
56681;BME280;42558;52.388;13.390;2023-04-26T05:09:11;101039.89;;;2.51;99.54
56681;BME280;42558;52.388;13.390;2023-04-26T05:11:41;101042.58;;;2.56;99.15
56681;BME280;42558;52.388;13.390;2023-04-26T05:14:10;101038.95;;;2.64;98.64
56681;BME280;42558;52.388;13.390;2023-04-26T05:16:40;101041.88;;;2.70;98.09
56681;BME280;42558;52.388;13.390;2023-04-26T05:19:10;101043.00;;;2.75;97.79
56681;BME280;42558;52.388;13.390;2023-04-26T05:21:42;101048.24;;;2.83;97.03
56681;BME280;42558;52.388;13.390;2023-04-26T05:24:11;101051.48;;;2.92;96.46
56681;BME280;42558;52.388;13.390;2023-04-26T05:26:41;101052.36;;;3.03;96.07
56681;BME280;42558;52.388;13.390;2023-04-26T05:29:11;101055.75;;;3.16;95.42
56681;BME280;42558;52.388;13.390;2023-04-26T05:31:41;101055.35;;;3.29;95.46
56681;BME280;42558;52.388;13.390;2023-04-26T05:34:11;101055.00;;;3.37;94.10
56681;BME280;42558;52.388;13.390;2023-04-26T05:36:41;101056.83;;;3.46;93.65
56681;BME280;42558;52.388;13.390;2023-04-26T05:39:10;101056.69;;;3.50;93.06
56681;BME280;42558;52.388;13.390;2023-04-26T05:41:40;101058.45;;;3.62;92.37
56681;BME280;42558;52.388;13.390;2023-04-26T05:44:14;101058.63;;;3.54;91.93
56681;BME280;42558;52.388;13.390;2023-04-26T05:46:45;101060.70;;;3.73;91.14
56681;BME280;42558;52.388;13.390;2023-04-26T05:49:15;101057.46;;;3.90;90.90
56681;BME280;42558;52.388;13.390;2023-04-26T05:51:45;101060.49;;;3.99;90.08
56681;BME280;42558;52.388;13.390;2023-04-26T05:54:15;101063.13;;;4.04;89.71
56681;BME280;42558;52.388;13.390;2023-04-26T05:56:43;101066.12;;;4.08;88.70
56681;BME280;42558;52.388;13.390;2023-04-26T05:59:12;101070.19;;;4.14;88.70
56681;BME280;42558;52.388;13.390;2023-04-26T06:01:40;101067.36;;;4.29;87.83
56681;BME280;42558;52.388;13.390;2023-04-26T06:04:09;101071.64;;;4.43;87.46
56681;BME280;42558;52.388;13.390;2023-04-26T06:06:37;101074.15;;;4.53;87.30
56681;BME280;42558;52.388;13.390;2023-04-26T06:09:05;101072.39;;;4.60;86.54
56681;BME280;42558;52.388;13.390;2023-04-26T06:11:34;101073.98;;;4.74;85.62
56681;BME280;42558;52.388;13.390;2023-04-26T06:14:02;101073.58;;;4.93;84.70
56681;BME280;42558;52.388;13.390;2023-04-26T06:16:31;101077.10;;;4.94;83.22
56681;BME280;42558;52.388;13.390;2023-04-26T06:18:59;101071.30;;;4.97;83.65
56681;BME280;42558;52.388;13.390;2023-04-26T06:21:28;101073.52;;;5.04;82.77
56681;BME280;42558;52.388;13.390;2023-04-26T06:23:56;101079.20;;;5.28;82.22
56681;BME280;42558;52.388;13.390;2023-04-26T06:26:24;101076.92;;;5.50;82.01
56681;BME280;42558;52.388;13.390;2023-04-26T06:28:53;101075.01;;;5.55;81.00
56681;BME280;42558;52.388;13.390;2023-04-26T06:31:21;101080.49;;;5.52;80.52
56681;BME280;42558;52.388;13.390;2023-04-26T06:33:50;101076.84;;;5.48;79.58
56681;BME280;42558;52.388;13.390;2023-04-26T06:36:18;101077.94;;;5.58;79.67
56681;BME280;42558;52.388;13.390;2023-04-26T06:38:46;101074.50;;;5.78;79.25
56681;BME280;42558;52.388;13.390;2023-04-26T06:41:15;101079.33;;;6.04;78.83
56681;BME280;42558;52.388;13.390;2023-04-26T06:43:43;101075.88;;;6.04;77.61
56681;BME280;42558;52.388;13.390;2023-04-26T06:46:12;101077.74;;;6.03;77.65
56681;BME280;42558;52.388;13.390;2023-04-26T06:48:40;101073.86;;;6.50;76.38
56681;BME280;42558;52.388;13.390;2023-04-26T06:51:09;101073.29;;;6.69;75.65
56681;BME280;42558;52.388;13.390;2023-04-26T06:53:37;101073.34;;;6.86;74.82
56681;BME280;42558;52.388;13.390;2023-04-26T06:56:06;101066.38;;;6.98;74.83
56681;BME280;42558;52.388;13.390;2023-04-26T06:58:34;101071.86;;;6.94;74.35
56681;BME280;42558;52.388;13.390;2023-04-26T07:01:02;101074.66;;;7.10;73.92
56681;BME280;42558;52.388;13.390;2023-04-26T07:03:31;101073.03;;;7.30;72.99
56681;BME280;42558;52.388;13.390;2023-04-26T07:05:59;101073.67;;;7.34;71.92
56681;BME280;42558;52.388;13.390;2023-04-26T07:08:27;101078.44;;;7.14;71.93
56681;BME280;42558;52.388;13.390;2023-04-26T07:10:56;101075.98;;;7.24;72.16
56681;BME280;42558;52.388;13.390;2023-04-26T07:13:24;101079.02;;;7.48;71.38
56681;BME280;42558;52.388;13.390;2023-04-26T07:15:53;101083.17;;;6.82;72.24
56681;BME280;42558;52.388;13.390;2023-04-26T07:18:21;101086.41;;;7.01;73.63
56681;BME280;42558;52.388;13.390;2023-04-26T07:20:49;101085.28;;;6.83;72.53
56681;BME280;42558;52.388;13.390;2023-04-26T07:23:18;101090.73;;;7.21;72.20
56681;BME280;42558;52.388;13.390;2023-04-26T07:25:46;101087.34;;;6.87;71.61
56681;BME280;42558;52.388;13.390;2023-04-26T07:28:15;101088.37;;;6.55;71.73
56681;BME280;42558;52.388;13.390;2023-04-26T07:30:43;101088.81;;;6.43;72.84
56681;BME280;42558;52.388;13.390;2023-04-26T07:33:12;101087.88;;;7.30;71.54
56681;BME280;42558;52.388;13.390;2023-04-26T07:35:42;101089.08;;;7.51;69.22
56681;BME280;42558;52.388;13.390;2023-04-26T07:38:11;101090.33;;;7.58;68.89
56681;BME280;42558;52.388;13.390;2023-04-26T07:40:49;101086.92;;;8.02;68.87
56681;BME280;42558;52.388;13.390;2023-04-26T07:43:19;101085.52;;;8.07;65.97
56681;BME280;42558;52.388;13.390;2023-04-26T07:45:49;101082.91;;;8.14;66.92
56681;BME280;42558;52.388;13.390;2023-04-26T07:48:20;101085.47;;;7.64;66.76
56681;BME280;42558;52.388;13.390;2023-04-26T07:50:50;101096.64;;;7.68;67.64
56681;BME280;42558;52.388;13.390;2023-04-26T07:53:21;101096.14;;;7.59;67.94
56681;BME280;42558;52.388;13.390;2023-04-26T07:55:51;101095.61;;;7.88;66.48
56681;BME280;42558;52.388;13.390;2023-04-26T07:58:21;101090.74;;;8.68;64.06
56681;BME280;42558;52.388;13.390;2023-04-26T08:00:51;101088.45;;;8.36;63.78
56681;BME280;42558;52.388;13.390;2023-04-26T08:03:21;101098.42;;;7.88;65.29
56681;BME280;42558;52.388;13.390;2023-04-26T08:05:51;101098.17;;;8.27;66.56
56681;BME280;42558;52.388;13.390;2023-04-26T08:08:22;101097.27;;;8.83;62.89
56681;BME280;42558;52.388;13.390;2023-04-26T08:10:52;101097.67;;;9.06;62.24
56681;BME280;42558;52.388;13.390;2023-04-26T08:13:22;101090.96;;;8.83;61.25
56681;BME280;42558;52.388;13.390;2023-04-26T08:15:54;101091.77;;;8.74;62.04
56681;BME280;42558;52.388;13.390;2023-04-26T08:18:24;101090.74;;;8.88;62.53
56681;BME280;42558;52.388;13.390;2023-04-26T08:20:54;101093.83;;;8.35;61.78
56681;BME280;42558;52.388;13.390;2023-04-26T08:23:24;101098.96;;;8.12;63.36
56681;BME280;42558;52.388;13.390;2023-04-26T08:25:54;101108.99;;;7.90;63.64
56681;BME280;42558;52.388;13.390;2023-04-26T08:28:23;101106.67;;;7.88;64.74
56681;BME280;42558;52.388;13.390;2023-04-26T08:30:53;101096.92;;;8.57;63.11
56681;BME280;42558;52.388;13.390;2023-04-26T08:33:24;101098.27;;;8.36;61.94
56681;BME280;42558;52.388;13.390;2023-04-26T08:35:54;101098.71;;;8.92;63.09
56681;BME280;42558;52.388;13.390;2023-04-26T08:38:24;101107.06;;;9.10;60.86
56681;BME280;42558;52.388;13.390;2023-04-26T08:40:57;101104.94;;;7.95;62.65
56681;BME280;42558;52.388;13.390;2023-04-26T08:43:28;101106.41;;;7.85;64.05
56681;BME280;42558;52.388;13.390;2023-04-26T08:46:00;101105.05;;;8.16;63.58
56681;BME280;42558;52.388;13.390;2023-04-26T08:48:33;101098.27;;;8.24;62.15
56681;BME280;42558;52.388;13.390;2023-04-26T08:51:07;101105.35;;;8.46;63.52
56681;BME280;42558;52.388;13.390;2023-04-26T08:53:40;101100.05;;;9.03;60.07
56681;BME280;42558;52.388;13.390;2023-04-26T08:56:12;101101.02;;;9.42;57.98
56681;BME280;42558;52.388;13.390;2023-04-26T08:58:42;101103.70;;;9.15;59.77
56681;BME280;42558;52.388;13.390;2023-04-26T09:01:14;101105.77;;;9.35;58.21
56681;BME280;42558;52.388;13.390;2023-04-26T09:03:43;101103.90;;;9.45;55.78
56681;BME280;42558;52.388;13.390;2023-04-26T09:06:14;101099.65;;;9.67;54.85
56681;BME280;42558;52.388;13.390;2023-04-26T09:08:44;101090.36;;;10.32;53.12
56681;BME280;42558;52.388;13.390;2023-04-26T09:11:15;101090.25;;;10.53;53.25
56681;BME280;42558;52.388;13.390;2023-04-26T09:13:44;101088.43;;;10.32;52.93
56681;BME280;42558;52.388;13.390;2023-04-26T09:16:14;101095.16;;;9.39;54.26
56681;BME280;42558;52.388;13.390;2023-04-26T09:18:50;101097.26;;;9.03;56.78
56681;BME280;42558;52.388;13.390;2023-04-26T09:21:19;101097.17;;;9.21;56.31
56681;BME280;42558;52.388;13.390;2023-04-26T09:23:59;101094.73;;;9.14;56.04
56681;BME280;42558;52.388;13.390;2023-04-26T09:26:27;101094.46;;;8.89;54.55
56681;BME280;42558;52.388;13.390;2023-04-26T09:29:19;101091.52;;;8.91;55.13
56681;BME280;42558;52.388;13.390;2023-04-26T09:31:49;101099.70;;;8.75;55.90
56681;BME280;42558;52.388;13.390;2023-04-26T09:34:18;101097.77;;;8.96;57.63
56681;BME280;42558;52.388;13.390;2023-04-26T09:36:54;101094.39;;;9.00;58.19
56681;BME280;42558;52.388;13.390;2023-04-26T09:42:03;101097.63;;;9.70;56.41
56681;BME280;42558;52.388;13.390;2023-04-26T09:44:33;101091.99;;;9.77;55.18
56681;BME280;42558;52.388;13.390;2023-04-26T09:47:09;101098.13;;;9.03;54.68
56681;BME280;42558;52.388;13.390;2023-04-26T09:49:49;101099.11;;;8.72;56.35
56681;BME280;42558;52.388;13.390;2023-04-26T09:52:19;101101.27;;;9.02;57.02
56681;BME280;42558;52.388;13.390;2023-04-26T09:54:52;101098.02;;;8.85;57.48
56681;BME280;42558;52.388;13.390;2023-04-26T09:57:21;101100.77;;;8.69;56.86
56681;BME280;42558;52.388;13.390;2023-04-26T09:59:53;101100.27;;;8.33;59.20
56681;BME280;42558;52.388;13.390;2023-04-26T10:02:26;101099.02;;;8.56;60.03
56681;BME280;42558;52.388;13.390;2023-04-26T10:04:55;101099.04;;;9.18;59.12
56681;BME280;42558;52.388;13.390;2023-04-26T10:07:26;101096.49;;;9.28;56.27
56681;BME280;42558;52.388;13.390;2023-04-26T10:09:57;101100.48;;;8.91;55.35
56681;BME280;42558;52.388;13.390;2023-04-26T10:12:28;101102.98;;;8.48;56.63
56681;BME280;42558;52.388;13.390;2023-04-26T10:14:57;101100.55;;;8.67;55.15
56681;BME280;42558;52.388;13.390;2023-04-26T10:17:27;101095.06;;;8.66;55.41
56681;BME280;42558;52.388;13.390;2023-04-26T10:19:58;101094.98;;;8.89;56.03
56681;BME280;42558;52.388;13.390;2023-04-26T10:22:32;101097.79;;;8.89;55.74
56681;BME280;42558;52.388;13.390;2023-04-26T10:25:00;101097.77;;;8.56;55.77
56681;BME280;42558;52.388;13.390;2023-04-26T10:30:18;101098.09;;;8.55;57.39
56681;BME280;42558;52.388;13.390;2023-04-26T10:35:23;101094.52;;;8.21;54.49
56681;BME280;42558;52.388;13.390;2023-04-26T10:40:36;101089.20;;;8.31;54.80
56681;BME280;42558;52.388;13.390;2023-04-26T10:45:38;101091.54;;;8.78;55.45
56681;BME280;42558;52.388;13.390;2023-04-26T10:48:19;101087.39;;;9.68;53.52
56681;BME280;42558;52.388;13.390;2023-04-26T10:56:03;101085.40;;;9.97;49.31
56681;BME280;42558;52.388;13.390;2023-04-26T10:58:34;101078.41;;;9.83;49.40
56681;BME280;42558;52.388;13.390;2023-04-26T11:01:09;101082.58;;;9.72;47.93
56681;BME280;42558;52.388;13.390;2023-04-26T11:04:04;101084.63;;;9.39;48.50
56681;BME280;42558;52.388;13.390;2023-04-26T11:06:54;101086.11;;;9.28;49.51
56681;BME280;42558;52.388;13.390;2023-04-26T11:09:39;101086.41;;;9.33;49.80
56681;BME280;42558;52.388;13.390;2023-04-26T11:12:16;101082.80;;;9.14;49.67
56681;BME280;42558;52.388;13.390;2023-04-26T11:14:46;101093.91;;;9.10;51.90
56681;BME280;42558;52.388;13.390;2023-04-26T11:17:16;101096.21;;;9.03;51.99
56681;BME280;42558;52.388;13.390;2023-04-26T11:19:46;101103.56;;;8.44;53.37
56681;BME280;42558;52.388;13.390;2023-04-26T11:22:21;101105.89;;;8.22;56.59
56681;BME280;42558;52.388;13.390;2023-04-26T11:24:51;101108.70;;;8.09;56.80
56681;BME280;42558;52.388;13.390;2023-04-26T11:27:26;101112.27;;;7.94;57.02
56681;BME280;42558;52.388;13.390;2023-04-26T11:29:55;101111.91;;;8.05;56.82
56681;BME280;42558;52.388;13.390;2023-04-26T11:32:25;101113.13;;;8.05;56.08
56681;BME280;42558;52.388;13.390;2023-04-26T11:34:52;101111.39;;;8.18;56.53
56681;BME280;42558;52.388;13.390;2023-04-26T11:37:21;101114.23;;;8.42;56.74
56681;BME280;42558;52.388;13.390;2023-04-26T11:39:49;101107.60;;;8.38;55.83
56681;BME280;42558;52.388;13.390;2023-04-26T11:42:24;101115.89;;;8.64;55.40
56681;BME280;42558;52.388;13.390;2023-04-26T11:44:56;101108.92;;;8.47;54.50
56681;BME280;42558;52.388;13.390;2023-04-26T11:47:27;101108.92;;;8.41;54.33
56681;BME280;42558;52.388;13.390;2023-04-26T11:50:00;101111.15;;;8.27;53.68
56681;BME280;42558;52.388;13.390;2023-04-26T11:52:29;101113.46;;;8.11;54.87
56681;BME280;42558;52.388;13.390;2023-04-26T11:55:05;101115.00;;;8.09;55.53
56681;BME280;42558;52.388;13.390;2023-04-26T11:57:35;101122.06;;;8.11;56.11
56681;BME280;42558;52.388;13.390;2023-04-26T12:00:12;101119.81;;;8.30;56.71
56681;BME280;42558;52.388;13.390;2023-04-26T12:02:46;101121.11;;;8.27;56.81
56681;BME280;42558;52.388;13.390;2023-04-26T12:05:27;101121.79;;;8.32;55.05
56681;BME280;42558;52.388;13.390;2023-04-26T12:07:59;101120.23;;;8.38;53.52
56681;BME280;42558;52.388;13.390;2023-04-26T12:10:35;101122.63;;;8.61;54.97
56681;BME280;42558;52.388;13.390;2023-04-26T12:13:05;101117.39;;;8.75;54.18
56681;BME280;42558;52.388;13.390;2023-04-26T12:15:32;101122.00;;;9.04;53.17
56681;BME280;42558;52.388;13.390;2023-04-26T12:18:09;101122.71;;;8.90;52.95
56681;BME280;42558;52.388;13.390;2023-04-26T12:20:41;101125.30;;;8.95;53.92
56681;BME280;42558;52.388;13.390;2023-04-26T12:23:15;101126.29;;;9.14;52.74
56681;BME280;42558;52.388;13.390;2023-04-26T12:25:56;101122.13;;;9.44;50.85
56681;BME280;42558;52.388;13.390;2023-04-26T12:28:30;101118.42;;;9.58;51.48
56681;BME280;42558;52.388;13.390;2023-04-26T12:31:00;101112.45;;;9.51;49.33
56681;BME280;42558;52.388;13.390;2023-04-26T12:33:31;101117.14;;;9.20;49.75
56681;BME280;42558;52.388;13.390;2023-04-26T12:36:11;101123.36;;;8.95;50.43
56681;BME280;42558;52.388;13.390;2023-04-26T12:38:41;101121.86;;;8.65;52.05
56681;BME280;42558;52.388;13.390;2023-04-26T12:41:11;101125.23;;;8.41;54.86
56681;BME280;42558;52.388;13.390;2023-04-26T12:43:41;101135.99;;;8.15;58.40
56681;BME280;42558;52.388;13.390;2023-04-26T12:46:10;101140.16;;;8.13;61.79
56681;BME280;42558;52.388;13.390;2023-04-26T12:48:40;101137.48;;;8.23;63.67
56681;BME280;42558;52.388;13.390;2023-04-26T12:51:10;101130.36;;;8.42;60.96
56681;BME280;42558;52.388;13.390;2023-04-26T12:53:40;101127.09;;;8.58;58.84
56681;BME280;42558;52.388;13.390;2023-04-26T12:56:10;101124.29;;;8.77;57.19
56681;BME280;42558;52.388;13.390;2023-04-26T12:58:40;101120.36;;;9.15;56.42
56681;BME280;42558;52.388;13.390;2023-04-26T13:01:12;101111.22;;;9.97;51.46
56681;BME280;42558;52.388;13.390;2023-04-26T13:03:43;101109.73;;;10.02;48.57
56681;BME280;42558;52.388;13.390;2023-04-26T13:06:14;101104.70;;;10.04;48.61
56681;BME280;42558;52.388;13.390;2023-04-26T13:08:44;101110.29;;;10.11;49.63
56681;BME280;42558;52.388;13.390;2023-04-26T13:11:13;101114.10;;;10.09;50.15
56681;BME280;42558;52.388;13.390;2023-04-26T13:13:44;101116.71;;;10.08;50.08
56681;BME280;42558;52.388;13.390;2023-04-26T13:16:12;101122.19;;;9.46;49.97
56681;BME280;42558;52.388;13.390;2023-04-26T13:18:41;101122.10;;;9.65;50.64
56681;BME280;42558;52.388;13.390;2023-04-26T13:21:09;101118.73;;;10.20;50.50
56681;BME280;42558;52.388;13.390;2023-04-26T13:23:38;101116.75;;;10.78;48.87